Flight Track Log - Related Links

Times and Time Zones

All times are in EDT time to prevent confusion due to time zone crossing. See the FLG3458 flight status page for this flight to view local times or setup timezone preferences in your user account.

Time Position Orientation Groundspeed Altitude Reporting Facility
EDT Latitude Longitude Course Direction KTS MPH feet Rate Location/Type
Thu 05:49:01 PM 36.1000 -86.6833 64° Northeast 164 189 1,400  Level Nashville TRACON
Thu 05:50:19 PM 36.0500 -86.6333 141° Southeast 222 255 4,200 1,478 Climbing Nashville TRACON
Thu 05:51:00 PM 36.1677 -86.2766 80° East  Level FlightAware Approximate
Thu 05:51:19 PM 36.0167 -86.5667 122° Southeast 286 329 4,800  Level Nashville TRACON
Thu 05:52:00 PM 36.1867 -86.1464 78° East  Level FlightAware Approximate
Thu 05:52:25 PM 36.0667 -86.4667 58° Northeast 279 321 9,000  Level Nashville TRACON
Thu 05:53:00 PM 36.2183 -86.0210 64° Northeast  Level FlightAware Approximate
Thu 05:53:08 PM 36.0789 -86.4072 76° East 309 356 11,100  Level Memphis Center
Thu 05:54:00 PM 36.2658 -85.9023 64° Northeast  Level FlightAware Approximate
Thu 05:54:08 PM 36.1153 -86.3053 66° East 335 386 13,100  Level Memphis Center
Thu 05:55:08 PM 36.1556 -86.1953 66° East 343 395 15,700 2,450 Climbing Memphis Center
Thu 05:56:08 PM 36.1972 -86.0775 66° East 356 410 18,000 2,250 Climbing Memphis Center
Thu 05:57:08 PM 36.2514 -85.9589 60° Northeast 377 434 20,200 2,012 Climbing Memphis Center
Thu 05:58:55 PM 36.3508 -85.7381 61° Northeast 417 480 23,600 1,811 Climbing Indianapolis Center
Thu 05:59:57 PM 36.4117 -85.6103 59° Northeast 426 490 25,300 1,645 Climbing Indianapolis Center
Thu 06:00:59 PM 36.4739 -85.4794 59° Northeast 437 503 27,000 1,452 Climbing Indianapolis Center
Thu 06:02:01 PM 36.5350 -85.3447 61° Northeast 443 510 28,300 1,452 Climbing Indianapolis Center
Thu 06:03:03 PM 36.5667 -85.1567 78° East 457 526 30,000 1,306 Climbing Indianapolis Center
Thu 06:04:05 PM 36.5925 -84.9969 79° East 465 535 31,000 484 Climbing Indianapolis Center
Thu 06:05:07 PM 36.6189 -84.8331 79° East 477 549 31,000  Level Indianapolis Center
Thu 06:06:09 PM 36.6464 -84.6650 78° East 491 565 31,000 290 Level Indianapolis Center
Thu 06:07:11 PM 36.6758 -84.4933 78° East 484 557 31,600 774 Climbing Indianapolis Center
Thu 06:08:13 PM 36.7050 -84.3275 78° East 488 562 32,600 1,161 Climbing Indianapolis Center
Thu 06:09:15 PM 36.7333 -84.1611 78° East 490 564 34,000 1,210 Climbing Indianapolis Center
Thu 06:10:17 PM 36.7847 -83.9772 71° East 480 552 35,100 968 Climbing Indianapolis Center
Thu 06:11:19 PM 36.8389 -83.8281 66° East 472 543 36,000 435 Climbing Indianapolis Center
Thu 06:12:21 PM 36.8942 -83.6814 65° Northeast 470 541 36,000  Level Indianapolis Center
Thu 06:13:23 PM 36.9486 -83.5286 66° East 478 550 36,000  Level Indianapolis Center
Thu 06:14:25 PM 37.0033 -83.3756 66° East 479 551 36,000  Level Indianapolis Center
Thu 06:15:27 PM 37.0589 -83.2203 66° East 485 558 36,000 145 Level Indianapolis Center
Thu 06:16:29 PM 37.1156 -83.0633 66° East 489 563 36,300 484 Climbing Indianapolis Center
Thu 06:17:31 PM 37.1797 -82.8811 66° East 481 554 37,000 339 Climbing Indianapolis Center
Thu 06:18:33 PM 37.2333 -82.7264 66° East 478 550 37,000  Level Indianapolis Center
Thu 06:19:36 PM 37.2867 -82.5733 66° East 478 550 37,000  Level Indianapolis Center
Thu 06:20:38 PM 37.3403 -82.4189 66° East 480 552 37,000  Level Indianapolis Center
Thu 06:21:40 PM 37.3933 -82.2653 66° East 478 550 37,000  Level Indianapolis Center
Thu 06:22:42 PM 37.4469 -82.1100 66° East 481 554 37,000  Level Indianapolis Center
Thu 06:23:44 PM 37.5097 -81.9292 66° East 483 556 37,000  Level Indianapolis Center
Thu 06:24:46 PM 37.5619 -81.7739 67° East 481 554 37,000  Level Indianapolis Center
Thu 06:25:48 PM 37.6142 -81.6183 67° East 481 554 37,000  Level Indianapolis Center
Thu 06:26:50 PM 37.6619 -81.4764 67° East 481 554 37,000  Level Indianapolis Center
Thu 06:27:52 PM 37.7239 -81.2911 67° East 489 563 37,000  Level Indianapolis Center
Thu 06:28:23 PM 37.7425 -81.2278 70° East 494 568 37,000  Level Washington Center
Thu 06:29:23 PM 37.7833 -81.0678 72° East 482 555 37,000  Level Washington Center
Thu 06:30:24 PM 37.7939 -80.8794 86° East 476 548 37,000  Level Washington Center
Thu 06:31:22 PM 37.8053 -80.7094 85° East 481 554 37,000  Level Washington Center
Thu 06:32:23 PM 37.8167 -80.5419 85° East 481 554 37,000  Level Washington Center
Thu 06:33:24 PM 37.8275 -80.3794 85° East 475 547 37,000  Level Washington Center
Thu 06:34:22 PM 37.8378 -80.2225 85° East 480 552 37,000  Level Washington Center
Thu 06:35:23 PM 37.8483 -80.0547 85° East 480 552 37,000  Level Washington Center
Thu 06:36:24 PM 37.8586 -79.8844 86° East 480 552 37,000  Level Washington Center
Thu 06:37:24 PM 37.8708 -79.7142 85° East 480 552 37,000  Level Washington Center
Thu 06:38:22 PM 37.8789 -79.5408 87° East 480 552 37,000  Level Washington Center
Thu 06:39:23 PM 37.8906 -79.3678 85° East 480 552 37,000  Level Washington Center
Thu 06:40:24 PM 37.8983 -79.1839 87° East 480 552 37,000  Level Washington Center
Thu 06:41:23 PM 37.8764 -79.0144 99° East 475 547 37,000  Level Washington Center
Thu 06:42:23 PM 37.8328 -78.8547 109° East 475 547 37,000  Level Washington Center
Thu 06:43:24 PM 37.7847 -78.7003 111° Southeast 475 547 37,000  Level Washington Center
Thu 06:44:22 PM 37.7408 -78.5436 109° East 480 552 37,000  Level Washington Center
Thu 06:45:22 PM 37.6983 -78.3975 110° East 480 552 37,000  Level Washington Center
Thu 06:46:23 PM 37.6539 -78.2411 110° East 475 547 37,000  Level Washington Center
Thu 06:47:24 PM 37.6031 -78.0819 112° Southeast 475 547 37,000  Level Washington Center
Thu 06:48:22 PM 37.5833 -77.9164 98° East 475 547 37,000  Level Washington Center
Thu 06:49:23 PM 37.5783 -77.7483 92° East 470 541 37,000  Level Washington Center
Thu 06:50:24 PM 37.5750 -77.5806 91° East 476 548 37,000  Level Washington Center
Thu 06:51:24 PM 37.5714 -77.4103 91° East 476 548 37,000  Level Washington Center
Thu 06:52:22 PM 37.5694 -77.2425 91° East 476 548 37,000  Level Washington Center
Thu 06:53:23 PM 37.5678 -77.0589 91° East 476 548 37,000  Level Washington Center
Thu 06:54:23 PM 37.5614 -76.8861 93° East 481 554 37,000  Level Washington Center
Thu 06:55:24 PM 37.5569 -76.7131 92° East 481 554 37,000  Level Washington Center
Thu 06:56:24 PM 37.5519 -76.5481 92° East 481 554 37,000  Level Washington Center
Thu 06:57:24 PM 37.5469 -76.3803 92° East 481 554 37,000  Level Washington Center
Thu 06:58:22 PM 37.5439 -76.2125 91° East 481 554 37,000  Level Washington Center
Thu 06:59:22 PM 37.5778 -76.0714 73° East 465 535 37,000  Level Washington Center
Thu 07:00:23 PM 37.6575 -75.9458 51° Northeast 438 504 37,000  Level Washington Center
Thu 07:01:23 PM 37.7578 -75.8256 43° Northeast 444 511 37,000  Level Washington Center
Thu 07:02:24 PM 37.8497 -75.7128 44° Northeast 444 511 37,000  Level Washington Center
Thu 07:03:24 PM 37.9436 -75.6075 41° Northeast 450 518 37,000  Level Washington Center
Thu 07:04:22 PM 38.0314 -75.5022 43° Northeast 444 511 37,000  Level Washington Center
Thu 07:05:22 PM 38.1356 -75.4228 31° Northeast 439 505 37,000  Level Washington Center
Thu 07:06:22 PM 38.2439 -75.3486 28° Northeast 439 505 37,000  Level Washington Center
Thu 07:07:23 PM 38.3458 -75.2847 26° Northeast 439 505 37,000  Level Washington Center
Thu 07:08:24 PM 38.4539 -75.2125 28° Northeast 439 505 37,000  Level Washington Center
Thu 07:09:24 PM 38.5664 -75.1431 26° Northeast 439 505 37,000  Level Washington Center
Thu 07:10:24 PM 38.6725 -75.0786 25° Northeast 439 505 37,000  Level Washington Center
Thu 07:11:22 PM 38.7806 -75.0031 29° Northeast 434 499 37,000 -605 Level Washington Center
Thu 07:12:23 PM 38.8800 -74.9278 31° Northeast 428 493 35,800 -1,650 Descending Washington Center
Thu 07:13:22 PM 38.9756 -74.8439 34° Northeast 421 484 33,700 -1,916 Descending Washington Center
Thu 07:14:22 PM 39.0708 -74.7628 33° Northeast 407 468 32,000 -1,736 Descending Washington Center
Thu 07:15:23 PM 39.1703 -74.6733 35° Northeast 412 474 30,200 -1,736 Descending Washington Center
Thu 07:16:23 PM 39.2633 -74.5917 34° Northeast 419 482 28,500 -2,132 Descending Washington Center
Thu 07:17:24 PM 39.3564 -74.5072 35° Northeast 389 448 25,900 -2,430 Descending Washington Center
Thu 07:18:24 PM 39.4369 -74.4333 35° Northeast 371 427 23,600 -2,186 Descending Washington Center
Thu 07:19:22 PM 39.4378 -74.3153 89° East 292 336 21,600 -2,017 Descending Washington Center
Thu 07:20:23 PM 39.3478 -74.2711 159° South 227 261 19,600 -1,770 Descending Washington Center
Thu 07:21:24 PM 39.2631 -74.3344 210° Southwest 230 265 18,000 -807 Descending Washington Center
Thu 07:22:22 PM 39.2031 -74.3917 216° Southwest 272 313 18,000  Level Washington Center
Thu 07:23:22 PM 39.1689 -74.5047 249° West 268 308 18,000  Level Washington Center
Thu 07:25:24 PM 39.3047 -74.5617 342° North 198 228 18,000  Level Washington Center
Thu 07:25:58 PM 39.3675 -74.4742 47° Northeast 382 440 18,000  Level New York Center
Thu 07:26:59 PM 39.4164 -74.4469 23° Northeast 292 336 18,000  Level New York Center
Thu 07:27:57 PM 39.4917 -74.3675 39° Northeast 307 353 18,000  Level New York Center
Thu 07:28:57 PM 39.5564 -74.3008 38° Northeast 301 346 18,000  Level New York Center
Thu 07:29:58 PM 39.6253 -74.2261 40° Northeast 308 354 18,000 50 Level New York Center
Thu 07:30:58 PM 39.6900 -74.1539 41° Northeast 326 375 18,100 -450 Climbing New York Center
Thu 07:31:58 PM 39.7567 -74.0814 40° Northeast 319 367 17,100 -1,400 Descending New York Center
Thu 07:32:58 PM 39.8211 -74.0114 40° Northeast 283 326 15,300 -1,785 Descending New York Center
Thu 07:33:59 PM 39.8894 -73.9550 32° Northeast 283 326 13,500 -1,664 Descending New York Center
Thu 07:34:57 PM 39.9508 -73.9119 28° Northeast 278 320 12,000 -1,261 Descending New York Center
Thu 07:35:58 PM 40.0147 -73.8633 30° Northeast 272 313 11,000 -492 Descending New York Center
Thu 07:36:59 PM 40.0850 -73.8122 29° Northeast 267 307 11,000 -550 Level New York Center
Thu 07:37:58 PM 40.1425 -73.7606 34° Northeast 262 302 9,900 -1,310 Descending New York Center
Thu 07:38:26 PM 40.1667 -73.7333 41° Northeast 246 283 9,100 -1,568 Descending New York TRACON
Thu 07:39:26 PM 40.2333 -73.7000 21° North 240 276 7,600 -1,050 Descending New York TRACON
Thu 07:40:26 PM 40.2833 -73.6500 37° Northeast 249 287 7,000 -298 Descending New York TRACON
Thu 07:41:27 PM 40.3500 -73.6000 30° Northeast 257 296 7,000  Level New York TRACON
Thu 07:41:58 PM 40.3825 -73.5803 25° Northeast 252 290 7,000  Level New York Center
Thu 07:42:33 PM 40.4167 -73.5500 34° Northeast 255 293 7,000  Level New York TRACON
Thu 07:43:21 PM 40.4667 -73.5167 27° Northeast 247 284 7,000 -474 Level New York TRACON
Thu 07:44:27 PM 40.5333 -73.4833 21° North 244 281 6,100 -1,190 Descending New York TRACON
Thu 07:45:27 PM 40.6000 -73.4833 360° North 241 277 4,500 -1,550 Descending New York TRACON
Thu 07:46:27 PM 40.6667 -73.5000 349° North 241 277 3,000 -750 Descending New York TRACON
Thu 07:47:27 PM 40.7167 -73.5000 360° North 187 215 3,000 -350 Level New York TRACON
Thu 07:48:27 PM 40.7667 -73.5333 333° Northwest 198 228 2,300 -500 Descending New York TRACON
Thu 07:49:27 PM 40.7833 -73.5833 294° West 167 192 2,000 -150 Descending New York TRACON
Thu 07:50:27 PM 40.7500 -73.6333 229° Southwest 158 182 2,000  Level New York TRACON
Thu 07:51:28 PM 40.7167 -73.6667 217° Southwest 159 183 2,000 -347 Level New York TRACON
Thu 07:52:28 PM 40.6833 -73.7000 217° Southwest 146 168 1,300 -700 Descending New York TRACON

Login

Don't have an account? Register now (free) for customized features, flight alerts, and more!